createdAt,value
2022-09-20T00:00:18.400Z,61.03
2022-09-20T00:01:28.607Z,61.63
2022-09-20T00:02:30.987Z,61.32
2022-09-20T00:03:32.525Z,61.29
2022-09-20T00:04:34.095Z,61.94
2022-09-20T00:05:37.595Z,62.51
2022-09-20T00:06:39.123Z,61.96
2022-09-20T00:07:44.717Z,61.52
2022-09-20T00:08:47.319Z,61.71
2022-09-20T00:09:48.934Z,62.10
2022-09-20T00:10:50.497Z,61.96
2022-09-20T00:11:52.405Z,63.04
2022-09-20T00:12:53.931Z,62.80
2022-09-20T00:13:57.300Z,63.60
2022-09-20T00:14:58.843Z,62.83
2022-09-20T00:16:00.614Z,63.11
2022-09-20T00:17:02.420Z,62.96
2022-09-20T00:18:04.025Z,63.71
2022-09-20T00:19:06.966Z,63.46
2022-09-20T00:20:11.296Z,63.43
2022-09-20T00:21:17.482Z,63.61
2022-09-20T00:22:19.418Z,63.98
2022-09-20T00:23:20.966Z,64.40
2022-09-20T00:24:22.867Z,64.08
2022-09-20T00:25:26.847Z,64.58
2022-09-20T00:26:29.277Z,64.24
2022-09-20T00:27:31.415Z,64.57
2022-09-20T00:28:34.555Z,64.50
2022-09-20T00:29:36.351Z,64.65
2022-09-20T00:30:38.594Z,64.77
2022-09-20T00:31:42.799Z,64.25
2022-09-20T00:32:44.596Z,64.53
2022-09-20T00:34:05.244Z,64.75
2022-09-20T00:35:07.841Z,64.81
2022-09-20T00:36:09.367Z,65.30
2022-09-20T00:37:10.859Z,65.11
2022-09-20T00:38:13.974Z,65.10
2022-09-20T00:39:16.392Z,65.15
2022-09-20T00:40:21.361Z,65.32
2022-09-20T00:41:23.000Z,65.55
2022-09-20T00:42:28.988Z,65.93
2022-09-20T00:43:37.308Z,66.93
2022-09-20T00:44:57.324Z,66.67
2022-09-20T00:46:09.237Z,66.56
2022-09-20T00:47:21.846Z,66.22
2022-09-20T00:48:31.887Z,66.87
2022-09-20T00:49:35.116Z,66.86
2022-09-20T00:50:45.688Z,66.74
2022-09-20T00:51:55.796Z,67.47
2022-09-20T00:53:14.237Z,67.81
2022-09-20T00:54:20.570Z,67.96
2022-09-20T00:55:22.864Z,68.09
2022-09-20T00:56:32.746Z,68.22
2022-09-20T00:57:36.363Z,68.30
2022-09-20T00:58:41.404Z,67.68
2022-09-20T00:59:46.753Z,68.18
2022-09-20T01:00:50.296Z,68.06
2022-09-20T01:02:03.120Z,68.56
2022-09-20T01:03:10.054Z,68.22
2022-09-20T01:04:14.465Z,67.86
2022-09-20T01:05:18.303Z,68.29
2022-09-20T01:06:19.841Z,68.55
2022-09-20T01:07:22.526Z,68.42
2022-09-20T01:08:26.875Z,68.44
2022-09-20T01:09:28.410Z,68.32
2022-09-20T01:10:31.670Z,68.00
2022-09-20T01:11:34.791Z,68.22
2022-09-20T01:12:40.338Z,68.93
2022-09-20T01:13:41.838Z,68.65
2022-09-20T01:14:46.076Z,68.53
2022-09-20T01:15:49.407Z,68.65
2022-09-20T01:16:55.201Z,68.53
2022-09-20T01:17:59.219Z,68.68
2022-09-20T01:19:08.862Z,68.23
2022-09-20T01:20:13.692Z,68.73
2022-09-20T01:21:17.548Z,68.45
2022-09-20T01:22:44.432Z,67.42
2022-09-20T01:23:57.567Z,67.62
2022-09-20T01:25:09.971Z,67.88
2022-09-20T01:26:30.121Z,67.19
2022-09-20T01:27:43.635Z,67.73
2022-09-20T01:28:48.781Z,67.68
2022-09-20T01:30:03.674Z,67.49
2022-09-20T01:31:18.265Z,67.78
2022-09-20T01:32:23.738Z,67.55
2022-09-20T01:33:34.062Z,67.33
2022-09-20T01:34:41.625Z,67.81
2022-09-20T01:35:45.712Z,67.69
2022-09-20T01:37:11.689Z,67.71
2022-09-20T01:38:22.316Z,67.92
2022-09-20T01:40:06.891Z,67.86
2022-09-20T01:41:23.820Z,67.63
2022-09-20T01:42:33.560Z,68.24
2022-09-20T01:43:41.715Z,68.28
2022-09-20T01:45:21.405Z,68.19
2022-09-20T01:46:32.305Z,67.67
2022-09-20T01:47:43.632Z,67.99
2022-09-20T01:48:45.241Z,68.10
2022-09-20T01:50:01.739Z,68.58
2022-09-20T01:51:21.900Z,68.42
2022-09-20T01:52:55.972Z,68.19
2022-09-20T01:54:16.130Z,68.41
2022-09-20T01:56:08.469Z,67.77
2022-09-20T01:57:45.246Z,68.32
2022-09-20T01:59:24.512Z,67.69
2022-09-20T02:00:31.083Z,67.53
2022-09-20T02:01:32.741Z,67.47
2022-09-20T02:02:58.493Z,67.46
2022-09-20T02:04:32.193Z,67.47
2022-09-20T02:06:11.000Z,67.71
2022-09-20T02:07:47.848Z,67.06
2022-09-20T02:08:58.104Z,67.34
2022-09-20T02:10:27.059Z,67.51
2022-09-20T02:11:56.469Z,67.56
2022-09-20T02:13:11.491Z,67.48
2022-09-20T02:14:35.834Z,68.05
2022-09-20T02:15:58.716Z,67.51
2022-09-20T02:17:21.140Z,67.08
2022-09-20T02:19:03.961Z,67.48
2022-09-20T02:20:23.258Z,67.19
2022-09-20T02:21:35.842Z,67.49
2022-09-20T02:22:49.267Z,67.36
2022-09-20T02:23:56.852Z,67.42
2022-09-20T02:25:04.336Z,67.46
2022-09-20T02:26:05.816Z,67.47
2022-09-20T02:27:19.363Z,66.90
2022-09-20T02:28:54.818Z,66.88
2022-09-20T02:30:33.407Z,66.90
2022-09-20T02:31:51.785Z,67.22
2022-09-20T02:33:41.561Z,67.41
2022-09-20T02:34:48.789Z,66.77
2022-09-20T02:36:05.297Z,66.87
2022-09-20T02:37:28.584Z,67.51
2022-09-20T02:39:02.817Z,66.69
2022-09-20T02:40:10.207Z,66.77
2022-09-20T02:41:20.443Z,66.87
2022-09-20T02:42:34.761Z,66.50
2022-09-20T02:43:40.668Z,66.84
2022-09-20T02:45:07.024Z,67.10
2022-09-20T02:46:21.831Z,66.33
2022-09-20T02:47:42.739Z,66.40
2022-09-20T02:48:44.211Z,66.41
2022-09-20T02:50:16.500Z,66.89
2022-09-20T02:51:29.741Z,66.05
2022-09-20T02:52:40.718Z,66.14
2022-09-20T02:53:57.938Z,66.49
2022-09-20T02:55:36.402Z,65.91
2022-09-20T02:56:37.961Z,65.50
2022-09-20T02:58:01.194Z,66.28
2022-09-20T02:59:25.690Z,65.47
2022-09-20T03:00:32.670Z,65.48
2022-09-20T03:01:47.975Z,64.51
2022-09-20T03:02:55.539Z,64.53
2022-09-20T03:04:34.464Z,64.79
2022-09-20T03:06:03.077Z,64.59
2022-09-20T03:07:26.642Z,65.07
2022-09-20T03:08:54.772Z,64.54
2022-09-20T03:10:50.216Z,64.87
2022-09-20T03:12:02.645Z,65.39
2022-09-20T03:13:42.195Z,64.47
2022-09-20T03:14:55.538Z,64.27
2022-09-20T03:16:25.628Z,64.89
2022-09-20T03:17:57.584Z,64.37
2022-09-20T03:19:19.116Z,64.25
2022-09-20T03:20:33.403Z,64.05
2022-09-20T03:21:52.410Z,64.15
2022-09-20T03:23:22.370Z,64.02
2022-09-20T03:24:54.284Z,64.72
2022-09-20T03:26:05.768Z,64.78
2022-09-20T03:27:28.240Z,65.07
2022-09-20T03:28:50.179Z,65.45
2022-09-20T03:30:16.163Z,65.32
2022-09-20T03:31:49.977Z,66.24
2022-09-20T03:32:57.569Z,65.79
2022-09-20T03:34:08.748Z,66.03
2022-09-20T03:35:49.525Z,65.59
2022-09-20T03:37:13.436Z,65.64
2022-09-20T03:38:52.156Z,65.20
2022-09-20T03:40:03.161Z,65.67
2022-09-20T03:41:31.005Z,65.12
2022-09-20T03:42:33.064Z,64.65
2022-09-20T03:43:46.673Z,65.04
2022-09-20T03:45:12.404Z,64.44
2022-09-20T03:46:18.719Z,64.60
2022-09-20T03:47:42.838Z,64.76
2022-09-20T03:49:02.350Z,64.97
2022-09-20T03:50:28.934Z,64.58
2022-09-20T03:51:54.394Z,64.92
2022-09-20T03:53:19.314Z,64.69
2022-09-20T03:54:52.827Z,65.50
2022-09-20T03:56:33.492Z,65.16
2022-09-20T03:57:52.028Z,65.50
2022-09-20T03:59:12.036Z,65.79
2022-09-20T04:00:13.696Z,66.34
2022-09-20T04:01:24.516Z,66.30
2022-09-20T04:03:01.737Z,65.84
2022-09-20T04:04:27.158Z,66.22
2022-09-20T04:05:43.607Z,66.27
2022-09-20T04:07:05.784Z,66.22
2022-09-20T04:08:26.356Z,65.60
2022-09-20T04:09:56.077Z,65.88
2022-09-20T04:11:16.503Z,66.03
2022-09-20T04:12:47.234Z,66.17
2022-09-20T04:14:15.517Z,65.91
2022-09-20T04:15:51.053Z,65.67
2022-09-20T04:16:57.605Z,65.68
2022-09-20T04:18:23.823Z,66.26
2022-09-20T04:19:33.434Z,65.66
2022-09-20T04:20:43.869Z,65.58
2022-09-20T04:22:01.711Z,65.15
2022-09-20T04:23:16.219Z,65.59
2022-09-20T04:24:31.991Z,65.69
2022-09-20T04:25:43.749Z,65.81
2022-09-20T04:26:50.366Z,66.05
2022-09-20T04:28:08.698Z,66.15
2022-09-20T04:29:26.399Z,65.75
2022-09-20T04:30:32.099Z,65.51
2022-09-20T04:31:45.529Z,65.48
2022-09-20T04:33:20.695Z,64.76
2022-09-20T04:34:51.826Z,65.40
2022-09-20T04:36:30.539Z,65.47
2022-09-20T04:37:36.586Z,65.20
2022-09-20T04:38:38.445Z,64.99
2022-09-20T04:39:43.058Z,65.24
2022-09-20T04:40:53.596Z,66.21
2022-09-20T04:42:09.767Z,65.98
2022-09-20T04:43:22.348Z,64.97
2022-09-20T04:44:45.987Z,65.02
2022-09-20T04:46:05.805Z,66.50
2022-09-20T04:47:23.820Z,67.87
2022-09-20T04:48:47.325Z,67.12
2022-09-20T04:50:33.856Z,67.86
2022-09-20T04:51:54.406Z,67.56
2022-09-20T04:53:11.796Z,67.19
2022-09-20T04:54:33.001Z,68.00
2022-09-20T04:55:40.389Z,66.54
2022-09-20T04:56:44.807Z,66.77
2022-09-20T04:58:14.270Z,67.26
2022-09-20T04:59:54.180Z,66.83
2022-09-20T05:01:23.412Z,66.14
2022-09-20T05:02:55.065Z,67.20
2022-09-20T05:04:34.189Z,66.75
2022-09-20T05:06:14.409Z,67.40
2022-09-20T05:08:09.862Z,67.56
2022-09-20T05:09:23.557Z,68.00
2022-09-20T05:10:54.068Z,68.50
2022-09-20T05:12:31.237Z,67.59
2022-09-20T05:13:54.336Z,67.60
2022-09-20T05:15:24.020Z,68.62
2022-09-20T05:16:50.224Z,68.25
2022-09-20T05:18:35.752Z,67.34
2022-09-20T05:20:01.559Z,66.68
2022-09-20T05:21:22.626Z,66.97
2022-09-20T05:23:12.706Z,67.22
2022-09-20T05:24:30.285Z,66.18
2022-09-20T05:26:00.756Z,65.67
2022-09-20T05:27:23.871Z,64.95
2022-09-20T05:29:02.848Z,65.38
2022-09-20T05:30:09.821Z,64.80
2022-09-20T05:31:17.645Z,65.16
2022-09-20T05:32:45.310Z,65.02
2022-09-20T05:34:04.412Z,63.50
2022-09-20T05:35:18.622Z,62.17
2022-09-20T05:36:34.548Z,62.60
2022-09-20T05:38:11.655Z,62.64
2022-09-20T05:39:33.475Z,63.22
2022-09-20T05:41:14.231Z,64.16
2022-09-20T05:42:47.114Z,64.08
2022-09-20T05:44:19.959Z,64.62
2022-09-20T05:45:48.249Z,65.09
2022-09-20T05:47:01.954Z,65.13
2022-09-20T05:48:32.933Z,64.22
2022-09-20T05:49:41.816Z,62.70
2022-09-20T05:51:34.117Z,62.88
2022-09-20T05:52:43.217Z,61.45
2022-09-20T05:54:23.133Z,61.78
2022-09-20T05:55:49.511Z,60.11
2022-09-20T05:57:12.238Z,60.15
2022-09-20T05:58:22.632Z,59.84
2022-09-20T05:59:26.886Z,59.20
2022-09-20T06:00:45.105Z,58.66
2022-09-20T06:01:57.663Z,59.48
2022-09-20T06:03:11.463Z,58.27
2022-09-20T06:04:19.830Z,57.73
2022-09-20T06:05:27.248Z,56.53
2022-09-20T06:06:58.562Z,55.84
2022-09-20T06:08:21.644Z,56.19
2022-09-20T06:09:34.171Z,56.36
2022-09-20T06:11:00.476Z,55.43
2022-09-20T06:12:20.953Z,54.80
2022-09-20T06:13:37.602Z,54.22
2022-09-20T06:15:02.025Z,55.24
2022-09-20T06:16:06.123Z,55.29
2022-09-20T06:17:25.306Z,55.69
2022-09-20T06:18:54.832Z,55.25
2022-09-20T06:20:25.348Z,53.59
2022-09-20T06:21:46.692Z,53.61
2022-09-20T06:22:56.445Z,54.14
2022-09-20T06:24:01.082Z,54.04
2022-09-20T06:25:08.675Z,53.86
2022-09-20T06:26:37.429Z,52.66
2022-09-20T06:27:47.071Z,53.50
2022-09-20T06:28:55.278Z,51.86
2022-09-20T06:30:05.895Z,52.59
2022-09-20T06:31:09.114Z,50.98
2022-09-20T06:32:10.696Z,51.40
2022-09-20T06:33:18.059Z,50.45
2022-09-20T06:34:19.715Z,50.11
2022-09-20T06:35:24.132Z,50.64
2022-09-20T06:36:48.515Z,51.42
2022-09-20T06:38:21.579Z,49.94
2022-09-20T06:40:32.522Z,50.45
2022-09-20T06:41:36.395Z,50.27
2022-09-20T06:42:38.545Z,49.27
2022-09-20T06:43:41.145Z,49.98
2022-09-20T06:44:43.411Z,49.15
2022-09-20T06:45:45.496Z,49.13
2022-09-20T06:46:47.646Z,49.72
2022-09-20T06:47:49.173Z,49.85
2022-09-20T06:48:51.244Z,49.87
2022-09-20T06:49:52.931Z,50.05
2022-09-20T06:50:54.907Z,50.00
2022-09-20T06:51:57.417Z,50.23
2022-09-20T06:52:58.927Z,49.75
2022-09-20T06:54:00.687Z,49.88
2022-09-20T06:55:07.400Z,49.42
2022-09-20T06:56:13.342Z,49.57
2022-09-20T06:57:18.993Z,50.11
2022-09-20T06:58:20.503Z,49.61
2022-09-20T06:59:22.408Z,50.42
2022-09-20T07:00:24.482Z,49.89
2022-09-20T07:01:30.487Z,49.75
2022-09-20T07:02:32.289Z,50.46
2022-09-20T07:03:33.843Z,49.32
2022-09-20T07:04:35.721Z,49.32
2022-09-20T07:05:37.371Z,49.36
2022-09-20T07:06:39.123Z,49.33
2022-09-20T07:07:40.726Z,49.29
2022-09-20T07:08:43.103Z,49.52
2022-09-20T07:09:44.950Z,49.00
2022-09-20T07:10:46.515Z,48.43
2022-09-20T07:11:48.036Z,48.00
2022-09-20T07:12:49.788Z,49.53
2022-09-20T07:13:53.994Z,49.09
2022-09-20T07:14:55.516Z,48.60
2022-09-20T07:16:04.731Z,48.29
2022-09-20T07:17:06.646Z,49.68
2022-09-20T07:18:08.270Z,48.79
2022-09-20T07:19:09.800Z,49.13
2022-09-20T07:20:11.343Z,50.05
2022-09-20T07:21:16.169Z,48.72
2022-09-20T07:22:17.691Z,48.36
2022-09-20T07:23:19.359Z,49.51
2022-09-20T07:24:21.017Z,48.82
2022-09-20T07:25:23.442Z,49.47
2022-09-20T07:26:28.427Z,49.01
2022-09-20T07:27:30.206Z,48.90
2022-09-20T07:28:34.288Z,49.01
2022-09-20T07:29:36.046Z,48.16
2022-09-20T07:30:39.141Z,48.49
2022-09-20T07:31:40.662Z,48.32
2022-09-20T07:32:42.546Z,48.96
2022-09-20T07:33:44.855Z,49.19
2022-09-20T07:34:47.065Z,49.40
2022-09-20T07:35:49.188Z,47.69
2022-09-20T07:36:51.323Z,47.88
2022-09-20T07:37:58.871Z,47.84
2022-09-20T07:39:00.399Z,47.81
2022-09-20T07:40:02.866Z,48.48
2022-09-20T07:41:05.354Z,47.56
2022-09-20T07:42:07.418Z,47.20
2022-09-20T07:43:09.185Z,47.65
2022-09-20T07:44:25.879Z,47.68
2022-09-20T07:45:27.513Z,47.94
2022-09-20T07:46:29.120Z,47.97
2022-09-20T07:47:35.309Z,48.86
2022-09-20T07:48:37.024Z,48.10
2022-09-20T07:49:38.780Z,47.93
2022-09-20T07:50:40.296Z,48.40
2022-09-20T07:51:41.934Z,47.72
2022-09-20T07:54:35.343Z,47.81
2022-09-20T07:55:37.083Z,48.01
2022-09-20T07:56:38.797Z,47.72
2022-09-20T07:57:40.505Z,46.68
2022-09-20T07:58:43.241Z,47.98
2022-09-20T07:59:44.813Z,46.74
2022-09-20T08:00:52.174Z,46.83
2022-09-20T08:01:53.797Z,46.46
2022-09-20T08:03:00.224Z,46.53
2022-09-20T08:04:02.065Z,45.72
2022-09-20T08:05:04.834Z,46.74
2022-09-20T08:06:08.984Z,46.34
2022-09-20T08:07:10.826Z,45.57
2022-09-20T08:08:13.184Z,46.65
2022-09-20T08:09:14.735Z,46.19
2022-09-20T08:10:16.381Z,46.20
2022-09-20T08:11:21.751Z,46.60
2022-09-20T08:15:11.904Z,46.41
2022-09-20T08:16:14.854Z,47.02
2022-09-20T08:17:16.431Z,46.31
2022-09-20T08:18:17.939Z,46.06
2022-09-20T08:19:21.844Z,45.31
2022-09-20T08:20:23.356Z,44.70
2022-09-20T08:21:31.488Z,46.70
2022-09-20T08:22:33.245Z,45.97
2022-09-20T08:23:39.054Z,44.94
2022-09-20T08:24:40.589Z,46.04
2022-09-20T08:25:42.124Z,45.57
2022-09-20T08:26:44.453Z,45.60
2022-09-20T08:27:52.761Z,45.96
2022-09-20T08:28:56.763Z,46.20
2022-09-20T08:29:58.441Z,45.26
2022-09-20T08:31:08.470Z,44.50
2022-09-20T08:32:10.369Z,45.76
2022-09-20T08:33:12.991Z,45.14
2022-09-20T08:34:17.018Z,45.21
2022-09-20T08:35:18.630Z,44.84
2022-09-20T08:36:24.349Z,45.31
2022-09-20T08:37:26.668Z,45.73
2022-09-20T08:39:58.454Z,45.62
2022-09-20T08:41:15.254Z,45.81
2022-09-20T08:42:33.877Z,44.84
2022-09-20T08:43:45.276Z,45.04
2022-09-20T08:45:00.455Z,44.85
2022-09-20T08:46:06.040Z,45.38
2022-09-20T08:47:14.153Z,45.99
2022-09-20T08:48:17.090Z,45.03
2022-09-20T08:49:29.768Z,44.20
2022-09-20T08:50:34.241Z,43.99
2022-09-20T08:51:38.965Z,44.86
2022-09-20T08:52:41.357Z,44.37
2022-09-20T08:53:49.224Z,44.05
2022-09-20T08:54:51.066Z,44.56
2022-09-20T08:55:52.567Z,44.87
2022-09-20T08:56:54.959Z,44.01
2022-09-20T08:57:58.226Z,44.44
2022-09-20T08:59:00.046Z,44.22
2022-09-20T09:00:03.102Z,44.36
2022-09-20T09:01:06.209Z,42.70
2022-09-20T09:02:20.427Z,42.63
2022-09-20T09:03:22.698Z,42.98
2022-09-20T09:04:29.882Z,42.95
2022-09-20T09:05:46.774Z,42.58
2022-09-20T09:06:49.783Z,43.22
2022-09-20T09:07:52.004Z,43.21
2022-09-20T09:08:58.438Z,42.22
2022-09-20T09:10:00.668Z,43.91
2022-09-20T09:11:09.424Z,43.98
2022-09-20T09:12:32.493Z,43.40
2022-09-20T09:13:54.577Z,43.44
2022-09-20T09:15:24.202Z,43.28
2022-09-20T09:16:34.997Z,43.55
2022-09-20T09:17:37.625Z,43.82
2022-09-20T09:18:42.936Z,42.90
2022-09-20T09:19:50.408Z,43.64
2022-09-20T09:20:52.017Z,43.72
2022-09-20T09:22:17.729Z,43.84
2022-09-20T09:23:26.105Z,44.06
2022-09-20T09:24:27.753Z,43.25
2022-09-20T09:25:39.855Z,43.02
2022-09-20T09:26:43.403Z,43.65
2022-09-20T09:27:59.710Z,42.89
2022-09-20T09:29:16.119Z,42.53
2022-09-20T09:30:28.030Z,42.33
2022-09-20T09:31:29.652Z,43.21
2022-09-20T09:32:32.979Z,43.01
2022-09-20T09:33:34.932Z,43.31
2022-09-20T09:34:38.807Z,42.91
2022-09-20T09:35:40.549Z,42.39
2022-09-20T09:36:45.156Z,42.93
2022-09-20T09:38:01.246Z,43.03
2022-09-20T09:39:38.384Z,42.59
2022-09-20T09:40:50.846Z,43.20
2022-09-20T09:41:52.669Z,42.91
2022-09-20T09:42:57.117Z,43.95
2022-09-20T09:44:09.941Z,42.85
2022-09-20T09:45:13.952Z,42.79
2022-09-20T09:46:21.351Z,43.73
2022-09-20T09:47:31.180Z,42.86
2022-09-20T09:48:32.920Z,42.79
2022-09-20T09:49:36.073Z,42.85
2022-09-20T09:50:37.947Z,42.77
2022-09-20T09:51:39.565Z,43.09
2022-09-20T09:52:41.132Z,42.12
2022-09-20T09:53:44.717Z,42.62
2022-09-20T09:54:50.590Z,42.74
2022-09-20T09:56:04.011Z,41.88
2022-09-20T09:57:24.190Z,42.63
2022-09-20T09:58:45.004Z,41.70
2022-09-20T10:00:20.900Z,41.83
2022-09-20T10:01:56.313Z,41.92
2022-09-20T10:03:26.354Z,42.08
2022-09-20T10:05:04.035Z,41.57
2022-09-20T10:06:18.290Z,42.12
2022-09-20T10:07:44.138Z,43.03
2022-09-20T10:09:10.079Z,41.08
2022-09-20T10:10:36.079Z,39.61
2022-09-20T10:11:49.710Z,40.83
2022-09-20T10:13:23.984Z,41.23
2022-09-20T10:14:40.704Z,42.08
2022-09-20T10:16:08.280Z,42.93
2022-09-20T10:17:27.526Z,41.65
2022-09-20T10:18:40.693Z,41.66
2022-09-20T10:20:02.255Z,40.32
2022-09-20T10:21:41.353Z,39.64
2022-09-20T10:25:02.967Z,39.11
2022-09-20T10:26:22.176Z,40.03
2022-09-20T10:27:32.485Z,40.15
2022-09-20T10:28:50.707Z,40.77
2022-09-20T10:30:09.457Z,40.01
2022-09-20T10:31:25.842Z,39.14
2022-09-20T10:32:50.113Z,38.30
2022-09-20T10:34:11.848Z,38.61
2022-09-20T10:35:25.049Z,39.45
2022-09-20T10:36:52.364Z,39.01
2022-09-20T10:38:00.015Z,38.10
2022-09-20T10:39:41.085Z,38.03
2022-09-20T10:41:21.639Z,39.03
2022-09-20T10:42:50.388Z,36.52
2022-09-20T10:44:10.126Z,36.87
2022-09-20T10:45:42.163Z,38.65
2022-09-20T10:47:06.883Z,37.79
2022-09-20T10:48:32.451Z,38.98
2022-09-20T10:50:11.412Z,38.45
2022-09-20T10:51:35.977Z,39.64
2022-09-20T10:52:45.318Z,39.65
2022-09-20T10:54:10.603Z,37.76
2022-09-20T10:55:33.777Z,38.16
2022-09-20T10:56:39.542Z,38.51
2022-09-20T10:57:47.224Z,39.61
2022-09-20T10:58:49.101Z,40.06
2022-09-20T10:59:51.289Z,38.92
2022-09-20T11:01:00.773Z,38.14
2022-09-20T11:02:41.103Z,38.60
2022-09-20T11:03:59.182Z,39.23
2022-09-20T11:05:19.037Z,39.38
2022-09-20T11:06:43.507Z,38.94
2022-09-20T11:08:06.230Z,38.89
2022-09-20T11:09:14.270Z,37.93
2022-09-20T11:10:56.952Z,37.29
2022-09-20T11:12:23.042Z,38.83
2022-09-20T11:13:30.459Z,37.52
2022-09-20T11:14:38.307Z,37.84
2022-09-20T11:15:47.040Z,37.88
2022-09-20T11:17:22.353Z,38.39
2022-09-20T11:18:40.842Z,38.51
2022-09-20T11:20:27.323Z,37.85
2022-09-20T11:21:38.417Z,37.96
2022-09-20T11:22:53.115Z,37.58
2022-09-20T11:24:22.596Z,38.17
2022-09-20T11:25:55.523Z,37.42
2022-09-20T11:27:04.806Z,38.17
2022-09-20T11:28:28.168Z,37.69
2022-09-20T11:29:56.062Z,37.35
2022-09-20T11:31:04.967Z,36.06
2022-09-20T11:32:13.881Z,36.17
2022-09-20T11:33:47.073Z,36.53
2022-09-20T11:35:17.553Z,36.88
2022-09-20T11:36:24.229Z,36.47
2022-09-20T11:37:34.152Z,36.70
2022-09-20T11:38:53.035Z,35.46
2022-09-20T11:39:55.756Z,35.21
2022-09-20T11:41:08.833Z,36.19
2022-09-20T11:42:19.115Z,36.37
2022-09-20T11:43:22.477Z,36.78
2022-09-20T11:44:24.691Z,36.81
2022-09-20T11:45:28.866Z,36.64
2022-09-20T11:46:50.417Z,36.89
2022-09-20T11:47:56.341Z,36.39
2022-09-20T11:49:06.207Z,36.44
2022-09-20T11:50:26.882Z,37.01
2022-09-20T11:51:40.263Z,37.15
2022-09-20T11:53:03.673Z,38.36
2022-09-20T11:54:11.190Z,37.78
2022-09-20T11:55:19.000Z,37.36
2022-09-20T11:56:25.721Z,37.03
2022-09-20T11:57:28.444Z,36.82
2022-09-20T11:58:31.581Z,37.26
2022-09-20T11:59:40.376Z,36.80
2022-09-20T12:00:46.107Z,37.15
2022-09-20T12:01:47.698Z,36.50
2022-09-20T12:02:54.215Z,35.39
2022-09-20T12:05:38.038Z,35.91
2022-09-20T12:06:42.567Z,35.54
2022-09-20T12:07:44.414Z,36.17
2022-09-20T12:08:50.395Z,36.26
2022-09-20T12:10:02.609Z,37.29
2022-09-20T12:11:10.713Z,37.26
2022-09-20T12:12:34.209Z,36.83
2022-09-20T12:13:38.946Z,36.28
2022-09-20T12:14:42.234Z,36.21
2022-09-20T12:15:44.214Z,36.86
2022-09-20T12:16:48.593Z,37.47
2022-09-20T12:17:50.323Z,35.26
2022-09-20T12:18:54.804Z,36.51
2022-09-20T12:19:56.367Z,35.59
2022-09-20T12:20:59.734Z,36.77
2022-09-20T12:22:01.210Z,36.36
2022-09-20T12:23:43.249Z,35.69
2022-09-20T12:24:45.708Z,36.37
2022-09-20T12:26:20.755Z,35.38
2022-09-20T12:27:26.362Z,35.60
2022-09-20T12:28:36.206Z,36.21
2022-09-20T12:29:50.132Z,36.56
2022-09-20T12:31:29.189Z,35.63
2022-09-20T12:32:44.391Z,35.84
2022-09-20T12:34:02.359Z,35.14
2022-09-20T12:35:35.847Z,36.31
2022-09-20T12:36:43.504Z,35.69
2022-09-20T12:37:45.138Z,35.15
2022-09-20T12:38:48.703Z,36.40
2022-09-20T12:39:55.697Z,36.68
2022-09-20T12:40:59.944Z,37.02
2022-09-20T12:42:01.420Z,36.37
2022-09-20T12:43:02.984Z,36.05
2022-09-20T12:44:24.521Z,36.04
2022-09-20T12:45:26.236Z,37.22
2022-09-20T12:46:38.355Z,36.39
2022-09-20T12:47:40.001Z,36.60
2022-09-20T12:48:41.819Z,37.15
2022-09-20T12:50:05.001Z,36.68
2022-09-20T12:52:00.839Z,36.20
2022-09-20T12:53:11.429Z,36.60
2022-09-20T12:54:14.029Z,36.52
2022-09-20T12:55:30.279Z,35.87
2022-09-20T12:56:36.305Z,36.27
2022-09-20T12:57:38.312Z,35.40
2022-09-20T12:58:53.633Z,35.55
2022-09-20T12:59:59.124Z,36.01
2022-09-20T13:01:03.352Z,36.20
2022-09-20T13:02:42.205Z,35.72
2022-09-20T13:03:48.361Z,36.42
2022-09-20T13:04:55.303Z,36.09
2022-09-20T13:06:16.421Z,36.16
2022-09-20T13:07:40.069Z,35.34
2022-09-20T13:09:07.450Z,36.05
2022-09-20T13:10:23.632Z,36.77
2022-09-20T13:11:29.474Z,37.25
2022-09-20T13:12:32.236Z,36.43
2022-09-20T13:13:43.360Z,35.84
2022-09-20T13:14:45.395Z,36.18
2022-09-20T13:15:53.637Z,35.81
2022-09-20T13:17:15.900Z,37.08
2022-09-20T13:18:18.312Z,36.99
2022-09-20T13:19:29.732Z,35.52
2022-09-20T13:20:34.909Z,35.95
2022-09-20T13:21:51.518Z,35.78
2022-09-20T13:22:59.564Z,35.24
2022-09-20T13:24:03.451Z,36.13
2022-09-20T13:25:07.354Z,36.45
2022-09-20T13:26:13.053Z,35.37
2022-09-20T13:27:21.000Z,35.43
2022-09-20T13:28:32.122Z,35.76
2022-09-20T13:29:42.337Z,34.96
2022-09-20T13:30:43.852Z,35.54
2022-09-20T13:31:45.442Z,36.24
2022-09-20T13:32:48.963Z,35.87
2022-09-20T13:33:51.076Z,36.24
2022-09-20T13:35:10.517Z,36.01
2022-09-20T13:36:12.493Z,35.67
2022-09-20T13:37:23.641Z,35.04
2022-09-20T13:38:30.702Z,36.36
2022-09-20T13:39:36.226Z,35.80
2022-09-20T13:40:41.527Z,36.05
2022-09-20T13:41:43.536Z,35.67
2022-09-20T13:42:46.277Z,36.10
2022-09-20T13:43:50.038Z,35.94
2022-09-20T13:44:52.288Z,35.52
2022-09-20T13:45:59.735Z,36.06
2022-09-20T13:47:01.588Z,36.30
2022-09-20T13:48:03.157Z,36.62
2022-09-20T13:49:20.724Z,36.61
2022-09-20T13:50:26.286Z,36.45
2022-09-20T13:51:28.742Z,36.67
2022-09-20T13:52:31.718Z,36.71
2022-09-20T13:53:41.780Z,37.07
2022-09-20T13:54:43.703Z,36.23
2022-09-20T13:55:46.443Z,37.17
2022-09-20T13:56:49.303Z,35.31
2022-09-20T13:57:53.317Z,35.18
2022-09-20T13:58:58.799Z,35.83
2022-09-20T14:00:01.732Z,36.17
2022-09-20T14:01:06.418Z,36.68
2022-09-20T14:02:24.203Z,36.37
2022-09-20T14:03:27.659Z,36.79
2022-09-20T14:04:31.381Z,36.98
2022-09-20T14:05:33.570Z,35.96
2022-09-20T14:06:35.815Z,36.93
2022-09-20T14:07:37.543Z,36.51
2022-09-20T14:08:45.340Z,37.40
2022-09-20T14:09:46.856Z,37.06
2022-09-20T14:10:50.601Z,36.51
2022-09-20T14:11:53.528Z,36.18
2022-09-20T14:12:56.165Z,34.76
2022-09-20T14:14:02.872Z,35.47
2022-09-20T14:15:09.865Z,35.93
2022-09-20T14:16:12.728Z,35.54
2022-09-20T14:17:19.014Z,35.95
2022-09-20T14:18:22.494Z,35.73
2022-09-20T14:19:33.385Z,36.16
2022-09-20T14:20:35.208Z,36.29
2022-09-20T14:21:38.280Z,36.45
2022-09-20T14:22:39.920Z,36.73
2022-09-20T14:23:53.816Z,35.91
2022-09-20T14:25:14.316Z,35.62
2022-09-20T14:26:15.953Z,35.73
2022-09-20T14:27:19.840Z,35.31
2022-09-20T14:28:24.578Z,35.52
2022-09-20T14:29:56.464Z,35.64
2022-09-20T14:31:08.779Z,36.10
2022-09-20T14:32:17.968Z,35.99
2022-09-20T14:33:21.102Z,36.29
2022-09-20T14:34:23.359Z,36.29
2022-09-20T14:35:27.004Z,36.17
2022-09-20T14:36:30.319Z,36.84
2022-09-20T14:37:49.633Z,36.72
2022-09-20T14:38:55.119Z,36.99
2022-09-20T14:39:59.272Z,37.11
2022-09-20T14:41:00.882Z,37.30
2022-09-20T14:42:02.445Z,37.05
2022-09-20T14:43:06.369Z,36.66
2022-09-20T14:44:33.392Z,37.15
2022-09-20T14:45:41.186Z,36.71
2022-09-20T14:46:43.340Z,37.07
2022-09-20T14:48:09.326Z,37.34
2022-09-20T14:49:26.247Z,37.14
2022-09-20T14:50:29.875Z,36.80
2022-09-20T14:51:31.374Z,37.14
2022-09-20T14:52:38.414Z,37.58
2022-09-20T14:53:40.192Z,37.38
2022-09-20T14:54:41.703Z,36.71
2022-09-20T14:56:15.146Z,36.94
2022-09-20T14:57:16.656Z,36.95
2022-09-20T14:58:18.176Z,36.79
2022-09-20T14:59:19.945Z,37.35
2022-09-20T15:00:21.984Z,37.54
2022-09-20T15:01:25.918Z,37.71
2022-09-20T15:02:27.583Z,37.42
2022-09-20T15:03:34.020Z,37.24
2022-09-20T15:04:37.969Z,37.13
2022-09-20T15:05:39.774Z,37.48
2022-09-20T15:06:41.820Z,37.53
2022-09-20T15:07:43.487Z,37.69
2022-09-20T15:08:46.893Z,37.62
2022-09-20T15:09:49.127Z,38.28
2022-09-20T15:10:50.892Z,38.46
2022-09-20T15:12:00.603Z,38.91
2022-09-20T15:13:02.114Z,38.82
2022-09-20T15:14:03.636Z,38.81
2022-09-20T15:15:05.686Z,39.31
2022-09-20T15:16:07.542Z,39.35
2022-09-20T15:17:20.768Z,39.11
2022-09-20T15:18:37.401Z,39.32
2022-09-20T15:19:38.953Z,39.27
2022-09-20T15:20:40.474Z,39.24
2022-09-20T15:21:41.984Z,39.20
2022-09-20T15:22:44.002Z,39.04
2022-09-20T15:23:45.524Z,39.31
2022-09-20T15:24:47.748Z,39.13
2022-09-20T15:25:51.960Z,38.95
2022-09-20T15:26:54.090Z,39.25
2022-09-20T15:27:57.824Z,38.99
2022-09-20T15:29:00.036Z,39.69
2022-09-20T15:30:01.594Z,39.58
2022-09-20T15:31:03.163Z,39.36
2022-09-20T15:32:05.882Z,40.10
2022-09-20T15:33:07.531Z,39.79
2022-09-20T15:34:09.069Z,40.33
2022-09-20T15:35:11.739Z,40.38
2022-09-20T15:36:13.347Z,40.13
2022-09-20T15:37:14.859Z,40.31
2022-09-20T15:38:18.305Z,40.28
2022-09-20T15:39:22.086Z,40.71